Time;durP1;ratioP1;P1;durP2;ratioP2;P2;SDS_P1;SDS_P2;PMS_P1;PMS_P2;Temp;Humidity;BMP_temperature;BMP_pressure;BME280_temperature;BME280_humidity;BME280_pressure;Samples;Min_cycle;Max_cycle;Signal;HPM_P1;HPM_P2
2023/01/11 00:01:00;;;;;;;;;;;8.60;99.90;;;;;;5136579;27;20357;-44
2023/01/11 00:03:25;;;;;;;;;;;8.70;99.90;;;;;;5136271;27;19912;-43
2023/01/11 00:05:54;;;;;;;;;;;8.70;99.90;;;;;;5122451;27;19919;-44
2023/01/11 00:08:20;;;;;;;;;;;8.70;99.90;;;;;;5136271;27;20475;-43
2023/01/11 00:10:46;;;;;;;;;;;8.80;99.90;;;;;;5137108;27;19911;-46
2023/01/11 00:13:12;;;;;;;;;;;8.80;99.90;;;;;;5136185;27;20358;-44
2023/01/11 00:15:39;;;;;;;;;;;8.80;99.90;;;;;;5142430;27;19983;-42
2023/01/11 00:18:04;;;;;;;;;;;8.80;99.90;;;;;;5156089;27;20422;-44
2023/01/11 00:20:30;;;;;;;;;;;8.80;99.90;;;;;;5155667;27;19961;-43
2023/01/11 00:22:56;;;;;;;;;;;8.80;99.90;;;;;;5133715;27;19966;-43
2023/01/11 00:25:21;;;;;;;;;;;8.90;99.90;;;;;;5124952;27;19918;-44
2023/01/11 00:27:48;;;;;;;;;;;8.80;99.90;;;;;;5156372;27;20002;-43
2023/01/11 00:30:14;;;;;;;;;;;8.90;99.90;;;;;;5156318;27;20005;-44
2023/01/11 00:32:41;;;;;;;;;;;8.90;99.90;;;;;;5155732;27;19907;-43
2023/01/11 00:35:07;;;;;;;;;;;8.90;99.90;;;;;;5136339;27;19966;-44
2023/01/11 00:37:32;;;;;;;;;;;9.00;99.90;;;;;;5144913;27;19916;-44
2023/01/11 00:39:58;;;;;;;;;;;9.00;99.90;;;;;;5155450;27;19915;-44
2023/01/11 00:47:59;;;;;;;;;;;9.10;99.90;;;;;;5114391;28;19991;-45
2023/01/11 00:50:25;;;;;;;;;;;9.10;99.90;;;;;;5131669;27;20005;-44
2023/01/11 00:52:51;;;;;;;;;;;9.10;99.90;;;;;;5146314;27;19912;-44
2023/01/11 00:55:16;;;;;;;;;;;9.20;99.90;;;;;;5135624;27;19919;-44
2023/01/11 00:57:42;;;;;;;;;;;9.20;99.90;;;;;;5151414;27;20254;-43
2023/01/11 01:00:08;;;;;;;;;;;9.20;99.90;;;;;;5154673;27;19911;-44
2023/01/11 01:02:33;;;;;;;;;;;9.30;99.90;;;;;;5145929;27;20014;-43
2023/01/11 01:04:59;;;;;;;;;;;9.30;99.90;;;;;;5146680;27;19911;-42
2023/01/11 01:07:24;;;;;;;;;;;9.30;99.90;;;;;;5138858;27;19962;-43
2023/01/11 01:09:50;;;;;;;;;;;9.30;99.90;;;;;;5153709;27;19911;-44
2023/01/11 01:14:24;;;;;;;;;;;9.30;99.90;;;;;;5141750;27;19919;-43
2023/01/11 01:15:01;;;;;;;;;;;9.40;99.90;;;;;;5137870;27;20092;-44
2023/01/11 01:17:27;;;;;;;;;;;9.40;99.90;;;;;;5134652;27;19997;-45
2023/01/11 01:19:52;;;;;;;;;;;9.40;99.90;;;;;;5135013;27;20429;-44
2023/01/11 01:22:18;;;;;;;;;;;9.40;99.90;;;;;;5134279;27;19908;-43
2023/01/11 01:24:43;;;;;;;;;;;9.40;99.90;;;;;;5147681;27;20277;-43
2023/01/11 01:27:14;;;;;;;;;;;9.40;99.90;;;;;;5153871;27;19911;-44
2023/01/11 01:29:40;;;;;;;;;;;9.40;99.90;;;;;;5154523;27;19950;-45
2023/01/11 01:32:05;;;;;;;;;;;9.50;99.90;;;;;;5155124;27;19922;-43
2023/01/11 01:34:30;;;;;;;;;;;9.40;99.90;;;;;;5154831;27;19919;-43
2023/01/11 01:36:56;;;;;;;;;;;9.40;99.90;;;;;;5154352;27;20458;-43
2023/01/11 01:39:21;;;;;;;;;;;9.40;99.90;;;;;;5137800;27;20408;-44
2023/01/11 01:41:47;;;;;;;;;;;9.50;99.90;;;;;;5154874;27;19934;-46
2023/01/11 01:44:31;;;;;;;;;;;9.50;99.90;;;;;;5154381;27;20008;-45
2023/01/11 01:46:56;;;;;;;;;;;9.50;99.90;;;;;;5153128;27;19976;-43
2023/01/11 01:49:22;;;;;;;;;;;9.50;99.90;;;;;;5154152;27;19915;-45
2023/01/11 01:51:52;;;;;;;;;;;9.50;99.90;;;;;;5154593;27;19907;-43
2023/01/11 01:54:21;;;;;;;;;;;9.60;99.90;;;;;;5152201;27;19918;-43
2023/01/11 01:57:08;;;;;;;;;;;9.60;99.90;;;;;;5133772;27;19947;-44
2023/01/11 01:59:34;;;;;;;;;;;9.60;99.90;;;;;;5128486;27;19967;-44
2023/01/11 02:02:00;;;;;;;;;;;9.60;99.90;;;;;;5143485;27;19957;-43
2023/01/11 02:04:39;;;;;;;;;;;9.70;99.90;;;;;;5135737;27;20413;-45
2023/01/11 02:07:05;;;;;;;;;;;9.70;99.90;;;;;;5154185;27;20405;-45
2023/01/11 02:09:42;;;;;;;;;;;9.70;99.90;;;;;;5154295;27;19962;-44
2023/01/11 02:12:08;;;;;;;;;;;9.70;99.90;;;;;;5148245;27;20373;-43
2023/01/11 02:14:34;;;;;;;;;;;9.70;99.90;;;;;;5130937;27;19924;-44
2023/01/11 02:16:59;;;;;;;;;;;9.80;99.90;;;;;;5116390;27;20381;-44
2023/01/11 02:19:44;;;;;;;;;;;9.90;99.90;;;;;;5124224;27;19912;-46
2023/01/11 02:22:11;;;;;;;;;;;9.90;99.90;;;;;;5140428;27;20006;-46
2023/01/11 02:24:40;;;;;;;;;;;9.90;99.90;;;;;;5151917;27;19911;-43
2023/01/11 02:27:15;;;;;;;;;;;9.90;99.90;;;;;;5115337;28;19916;-44
2023/01/11 02:29:59;;;;;;;;;;;10.00;99.90;;;;;;5133811;27;19980;-45
2023/01/11 02:32:27;;;;;;;;;;;10.00;99.90;;;;;;5141906;27;19911;-44
2023/01/11 02:35:25;;;;;;;;;;;10.00;99.90;;;;;;5154054;27;20001;-43
2023/01/11 02:38:00;;;;;;;;;;;10.00;99.90;;;;;;5095242;27;19923;-43
2023/01/11 02:40:32;;;;;;;;;;;10.00;99.90;;;;;;5152850;27;20011;-44
2023/01/11 02:45:56;;;;;;;;;;;10.10;99.90;;;;;;5112354;27;20285;-44
2023/01/11 02:48:40;;;;;;;;;;;10.10;99.90;;;;;;5112958;28;19908;-46
2023/01/11 02:51:21;;;;;;;;;;;10.20;99.90;;;;;;5144195;27;20026;-46
2023/01/11 02:53:53;;;;;;;;;;;10.20;99.90;;;;;;5133247;27;20396;-44
2023/01/11 02:56:20;;;;;;;;;;;10.20;99.90;;;;;;5118800;27;19918;-45
2023/01/11 02:58:48;;;;;;;;;;;10.20;99.90;;;;;;5142587;27;19930;-44
2023/01/11 03:01:13;;;;;;;;;;;10.20;99.90;;;;;;5153075;27;19915;-46
2023/01/11 03:03:39;;;;;;;;;;;10.30;99.90;;;;;;5145477;27;20276;-46
2023/01/11 03:06:10;;;;;;;;;;;10.20;99.90;;;;;;5149257;27;19911;-44
2023/01/11 03:08:54;;;;;;;;;;;10.20;99.90;;;;;;5156424;27;19911;-44
2023/01/11 03:14:19;;;;;;;;;;;10.30;99.90;;;;;;5116966;27;20384;-45
2023/01/11 03:16:54;;;;;;;;;;;10.30;99.90;;;;;;5152009;27;19916;-45
2023/01/11 03:19:31;;;;;;;;;;;10.30;99.90;;;;;;5137216;27;20006;-45
2023/01/11 03:22:06;;;;;;;;;;;10.30;99.90;;;;;;5142313;27;20416;-44
2023/01/11 03:24:37;;;;;;;;;;;10.40;99.90;;;;;;5155845;27;19960;-43
2023/01/11 03:27:06;;;;;;;;;;;10.40;99.90;;;;;;5157696;27;19956;-44
2023/01/11 03:29:31;;;;;;;;;;;10.40;99.90;;;;;;5156601;27;19959;-43
2023/01/11 03:32:00;;;;;;;;;;;10.40;99.90;;;;;;5151413;27;19911;-46
2023/01/11 03:34:25;;;;;;;;;;;10.40;99.90;;;;;;5136751;27;19923;-43
2023/01/11 03:36:58;;;;;;;;;;;10.50;99.90;;;;;;5136128;27;20037;-44
2023/01/11 03:39:44;;;;;;;;;;;10.50;99.90;;;;;;5139472;27;20005;-43
2023/01/11 03:42:12;;;;;;;;;;;10.50;99.90;;;;;;5148965;27;19915;-45
2023/01/11 03:44:45;;;;;;;;;;;10.50;99.90;;;;;;5136630;27;19980;-45
2023/01/11 03:47:14;;;;;;;;;;;10.50;99.90;;;;;;5136829;27;20354;-44
2023/01/11 03:49:43;;;;;;;;;;;10.60;99.90;;;;;;5154497;27;19972;-45
2023/01/11 03:52:09;;;;;;;;;;;10.60;99.90;;;;;;5150171;27;19907;-47
2023/01/11 03:54:35;;;;;;;;;;;10.60;99.90;;;;;;5137291;27;19930;-45
2023/01/11 03:57:20;;;;;;;;;;;10.60;99.90;;;;;;5140332;27;19942;-46
2023/01/11 03:59:47;;;;;;;;;;;10.60;99.90;;;;;;5139753;27;19938;-44
2023/01/11 04:02:20;;;;;;;;;;;10.60;99.90;;;;;;5136376;27;19914;-48
2023/01/11 04:04:46;;;;;;;;;;;10.60;99.90;;;;;;5140996;27;19912;-46
2023/01/11 04:07:12;;;;;;;;;;;10.60;99.90;;;;;;5141137;27;19912;-46
2023/01/11 04:09:37;;;;;;;;;;;10.60;99.90;;;;;;5136049;27;19980;-44
2023/01/11 04:12:03;;;;;;;;;;;10.60;99.90;;;;;;5138615;27;20006;-44
2023/01/11 04:14:28;;;;;;;;;;;10.60;99.90;;;;;;5156646;27;20087;-45
2023/01/11 04:16:54;;;;;;;;;;;10.70;99.90;;;;;;5156823;27;19915;-44
2023/01/11 04:19:19;;;;;;;;;;;10.70;99.90;;;;;;5145167;27;20357;-45
2023/01/11 04:21:44;;;;;;;;;;;10.70;99.90;;;;;;5137222;27;19911;-46
2023/01/11 04:24:12;;;;;;;;;;;10.70;99.90;;;;;;5135404;27;19908;-45
2023/01/11 04:26:38;;;;;;;;;;;10.70;99.90;;;;;;5138581;27;19961;-43
2023/01/11 04:29:03;;;;;;;;;;;10.70;99.90;;;;;;5135973;27;20360;-46
2023/01/11 04:31:29;;;;;;;;;;;10.80;99.90;;;;;;5135535;27;19919;-44
2023/01/11 04:33:54;;;;;;;;;;;10.80;99.90;;;;;;5156709;27;19915;-44
2023/01/11 04:36:20;;;;;;;;;;;10.80;99.90;;;;;;5156103;27;19911;-47
2023/01/11 04:38:45;;;;;;;;;;;10.80;99.90;;;;;;5155759;27;19959;-50
2023/01/11 04:43:55;;;;;;;;;;;10.90;99.90;;;;;;5155071;27;19956;-44
2023/01/11 04:46:21;;;;;;;;;;;10.90;99.90;;;;;;5154875;27;19911;-44
2023/01/11 04:48:47;;;;;;;;;;;10.90;99.90;;;;;;5152311;27;19911;-45
2023/01/11 04:51:12;;;;;;;;;;;10.90;99.90;;;;;;5135640;27;19919;-45
2023/01/11 04:53:38;;;;;;;;;;;10.90;99.90;;;;;;5148511;27;19958;-45
2023/01/11 04:56:04;;;;;;;;;;;10.90;99.90;;;;;;5154354;27;19919;-47
2023/01/11 04:58:32;;;;;;;;;;;10.90;99.90;;;;;;5156121;27;19939;-46
2023/01/11 05:00:57;;;;;;;;;;;11.00;99.90;;;;;;5139769;27;19912;-46
2023/01/11 05:03:23;;;;;;;;;;;11.00;99.90;;;;;;5135076;27;19917;-43
2023/01/11 05:05:55;;;;;;;;;;;11.00;99.90;;;;;;5146357;27;19951;-44
2023/01/11 05:08:21;;;;;;;;;;;11.00;99.90;;;;;;5155241;27;20318;-44
2023/01/11 05:10:52;;;;;;;;;;;11.00;99.90;;;;;;5155714;27;20349;-44
2023/01/11 05:13:18;;;;;;;;;;;11.00;99.90;;;;;;5154819;27;20361;-45
2023/01/11 05:15:44;;;;;;;;;;;11.00;99.90;;;;;;5145860;27;19911;-45
2023/01/11 05:18:09;;;;;;;;;;;11.10;99.90;;;;;;5134967;27;19919;-45
2023/01/11 05:20:34;;;;;;;;;;;11.10;99.90;;;;;;5145441;27;20434;-43
2023/01/11 05:23:00;;;;;;;;;;;11.10;99.90;;;;;;5140561;27;19912;-44
2023/01/11 05:25:25;;;;;;;;;;;11.20;99.90;;;;;;5136005;27;19918;-46
2023/01/11 05:27:51;;;;;;;;;;;11.20;99.90;;;;;;5148386;27;19911;-43
2023/01/11 05:30:16;;;;;;;;;;;11.20;99.90;;;;;;5154166;27;19917;-46
2023/01/11 05:32:42;;;;;;;;;;;11.10;99.90;;;;;;5155022;27;20250;-45
2023/01/11 05:35:10;;;;;;;;;;;11.10;99.90;;;;;;5149626;27;19919;-51
2023/01/11 05:37:36;;;;;;;;;;;11.10;99.90;;;;;;5134745;27;19907;-45
2023/01/11 05:40:01;;;;;;;;;;;11.10;99.90;;;;;;5134293;27;19994;-43
2023/01/11 05:42:27;;;;;;;;;;;11.10;99.90;;;;;;5133822;27;19994;-44
2023/01/11 05:47:36;;;;;;;;;;;11.10;99.90;;;;;;5155659;27;20541;-45
2023/01/11 05:50:02;;;;;;;;;;;11.00;99.90;;;;;;5140073;27;19907;-43
2023/01/11 05:52:27;;;;;;;;;;;11.00;99.90;;;;;;5153262;27;19911;-47
2023/01/11 05:54:53;;;;;;;;;;;11.00;99.90;;;;;;5152734;27;20000;-44
2023/01/11 05:57:18;;;;;;;;;;;11.00;99.90;;;;;;5153875;27;19911;-47
2023/01/11 05:59:44;;;;;;;;;;;10.90;99.90;;;;;;5154779;27;20262;-43
2023/01/11 06:02:09;;;;;;;;;;;10.90;99.90;;;;;;5137382;27;19911;-48
2023/01/11 06:04:35;;;;;;;;;;;10.90;99.90;;;;;;5149140;27;20335;-43
2023/01/11 06:07:00;;;;;;;;;;;10.90;99.90;;;;;;5154715;27;19915;-45
2023/01/11 06:09:27;;;;;;;;;;;10.90;99.90;;;;;;5154518;27;20054;-45
2023/01/11 06:11:52;;;;;;;;;;;10.90;99.90;;;;;;5154181;27;19907;-44
2023/01/11 06:14:17;;;;;;;;;;;10.90;99.90;;;;;;5153165;27;19915;-44
2023/01/11 06:16:43;;;;;;;;;;;10.90;99.90;;;;;;5132396;27;19912;-45
2023/01/11 06:19:10;;;;;;;;;;;10.90;99.90;;;;;;5114668;27;19915;-43
2023/01/11 06:21:35;;;;;;;;;;;10.90;99.90;;;;;;5134848;27;19917;-46
2023/01/11 06:24:01;;;;;;;;;;;10.90;99.90;;;;;;5132900;27;19998;-45
2023/01/11 06:26:26;;;;;;;;;;;10.90;99.90;;;;;;5134909;27;19912;-45
2023/01/11 06:28:52;;;;;;;;;;;10.90;99.90;;;;;;5133614;27;20365;-46
2023/01/11 06:31:17;;;;;;;;;;;10.90;99.90;;;;;;5119143;27;19912;-46
2023/01/11 06:33:43;;;;;;;;;;;10.90;99.90;;;;;;5153086;27;19915;-46
2023/01/11 06:36:10;;;;;;;;;;;10.90;99.90;;;;;;5134770;27;19919;-45
2023/01/11 06:38:36;;;;;;;;;;;10.80;99.90;;;;;;5132654;27;19955;-45
2023/01/11 06:41:02;;;;;;;;;;;10.80;99.90;;;;;;5133533;27;19919;-47
2023/01/11 06:43:29;;;;;;;;;;;10.80;99.90;;;;;;5133543;27;19907;-45
2023/01/11 06:45:54;;;;;;;;;;;10.70;99.90;;;;;;5146466;27;20369;-44
2023/01/11 06:48:21;;;;;;;;;;;10.70;99.90;;;;;;5154003;27;19919;-44
2023/01/11 06:50:50;;;;;;;;;;;10.70;99.90;;;;;;5146073;27;19963;-45
2023/01/11 06:53:16;;;;;;;;;;;10.70;99.90;;;;;;5150951;27;20377;-47
2023/01/11 06:55:42;;;;;;;;;;;10.70;99.90;;;;;;5152484;27;19911;-44
2023/01/11 06:58:07;;;;;;;;;;;10.60;99.90;;;;;;5134874;27;19908;-43
2023/01/11 07:00:33;;;;;;;;;;;10.60;99.90;;;;;;5132706;28;19908;-44
2023/01/11 07:03:03;;;;;;;;;;;10.60;99.90;;;;;;5127787;28;19947;-44
2023/01/11 07:05:28;;;;;;;;;;;10.60;99.90;;;;;;5112578;28;19908;-46
2023/01/11 07:07:54;;;;;;;;;;;10.50;99.90;;;;;;5112062;28;20006;-44
2023/01/11 07:10:19;;;;;;;;;;;10.50;99.90;;;;;;5112780;28;20007;-45
2023/01/11 07:12:45;;;;;;;;;;;10.50;99.90;;;;;;5126973;27;19959;-43
2023/01/11 07:15:10;;;;;;;;;;;10.40;99.90;;;;;;5136389;27;20376;-44
2023/01/11 07:17:37;;;;;;;;;;;10.40;99.90;;;;;;5136657;27;19908;-44
2023/01/11 07:20:03;;;;;;;;;;;10.40;99.90;;;;;;5132563;27;19919;-43
2023/01/11 07:22:29;;;;;;;;;;;10.40;99.90;;;;;;5133099;27;20319;-45
2023/01/11 07:24:54;;;;;;;;;;;10.40;99.90;;;;;;5145428;27;19915;-44
2023/01/11 07:27:19;;;;;;;;;;;10.30;99.90;;;;;;5153189;27;19907;-44
2023/01/11 07:29:46;;;;;;;;;;;10.30;99.90;;;;;;5149159;27;20405;-45
2023/01/11 07:32:11;;;;;;;;;;;10.30;99.90;;;;;;5112317;28;19964;-43
2023/01/11 07:34:37;;;;;;;;;;;10.30;99.90;;;;;;5114561;27;19919;-43
2023/01/11 07:37:03;;;;;;;;;;;10.40;99.90;;;;;;5132181;27;19911;-44
2023/01/11 07:39:28;;;;;;;;;;;10.30;99.90;;;;;;5129108;28;20266;-44
2023/01/11 07:44:37;;;;;;;;;;;10.30;99.90;;;;;;5127982;28;19966;-42
2023/01/11 07:47:03;;;;;;;;;;;10.30;99.90;;;;;;5118116;27;20374;-45
2023/01/11 07:49:28;;;;;;;;;;;10.30;99.90;;;;;;5131975;27;19973;-44
2023/01/11 07:51:54;;;;;;;;;;;10.30;99.90;;;;;;5142447;27;20377;-43
2023/01/11 07:54:19;;;;;;;;;;;10.30;99.90;;;;;;5134962;27;20002;-44
2023/01/11 07:56:45;;;;;;;;;;;10.30;99.90;;;;;;5123166;27;20007;-42
2023/01/11 07:59:10;;;;;;;;;;;10.30;99.90;;;;;;5136686;27;19907;-45
2023/01/11 08:01:36;;;;;;;;;;;10.30;99.90;;;;;;5136453;27;19976;-44
2023/01/11 08:04:02;;;;;;;;;;;10.40;99.90;;;;;;5115228;28;19914;-45
2023/01/11 08:06:27;;;;;;;;;;;10.30;99.90;;;;;;5115898;28;20400;-47
2023/01/11 08:08:53;;;;;;;;;;;10.40;99.90;;;;;;5122343;27;20025;-44
2023/01/11 08:16:46;;;;;;;;;;;10.20;99.90;;;;;;5145100;27;20059;-43
2023/01/11 08:19:11;;;;;;;;;;;10.30;99.90;;;;;;5139273;27;19983;-44
2023/01/11 08:21:37;;;;;;;;;;;10.20;99.90;;;;;;5136297;27;19916;-45
2023/01/11 08:24:02;;;;;;;;;;;10.20;99.90;;;;;;5139069;27;20421;-42
2023/01/11 08:26:28;;;;;;;;;;;10.20;99.90;;;;;;5136064;27;19907;-43
2023/01/11 08:28:54;;;;;;;;;;;10.20;99.90;;;;;;5135938;27;20380;-43
2023/01/11 08:31:20;;;;;;;;;;;10.20;99.90;;;;;;5135274;27;19908;-48
2023/01/11 08:33:45;;;;;;;;;;;10.20;99.90;;;;;;5135759;27;19922;-44
2023/01/11 08:36:11;;;;;;;;;;;10.20;99.90;;;;;;5136740;27;19912;-46
2023/01/11 08:38:37;;;;;;;;;;;10.10;99.90;;;;;;5146452;27;19907;-43
2023/01/11 08:41:09;;;;;;;;;;;10.10;99.90;;;;;;5135938;27;19907;-45
2023/01/11 08:43:37;;;;;;;;;;;10.00;99.90;;;;;;5135704;27;19911;-43
2023/01/11 08:46:03;;;;;;;;;;;10.00;99.90;;;;;;5134945;27;19914;-46
2023/01/11 08:48:28;;;;;;;;;;;9.90;99.90;;;;;;5135627;27;19998;-43
2023/01/11 08:50:54;;;;;;;;;;;9.90;99.90;;;;;;5135606;27;19912;-45
2023/01/11 08:53:19;;;;;;;;;;;9.80;99.90;;;;;;5134348;27;19941;-44
2023/01/11 08:55:47;;;;;;;;;;;9.80;99.90;;;;;;5134831;27;20408;-45
2023/01/11 08:58:12;;;;;;;;;;;9.80;99.90;;;;;;5135538;27;19918;-42
2023/01/11 09:00:38;;;;;;;;;;;9.80;99.90;;;;;;5136415;27;19912;-44
2023/01/11 09:03:03;;;;;;;;;;;9.80;99.90;;;;;;5138573;27;19907;-44
2023/01/11 09:05:29;;;;;;;;;;;9.80;99.90;;;;;;5138741;27;19914;-44
2023/01/11 09:07:54;;;;;;;;;;;9.80;99.90;;;;;;5138318;27;20528;-44
2023/01/11 09:10:20;;;;;;;;;;;9.80;99.90;;;;;;5136316;27;19960;-45
2023/01/11 09:12:45;;;;;;;;;;;9.80;99.90;;;;;;5136806;27;20009;-46
2023/01/11 09:15:11;;;;;;;;;;;9.70;99.90;;;;;;5137379;27;19915;-45
2023/01/11 09:17:36;;;;;;;;;;;9.70;99.90;;;;;;5137379;27;19912;-47
2023/01/11 09:20:02;;;;;;;;;;;9.70;99.90;;;;;;5137509;27;20334;-44
2023/01/11 09:22:28;;;;;;;;;;;9.60;99.90;;;;;;5139139;27;19922;-46
2023/01/11 09:24:54;;;;;;;;;;;9.60;99.90;;;;;;5138038;27;19915;-44
2023/01/11 09:27:19;;;;;;;;;;;9.60;99.90;;;;;;5132080;27;20002;-44
2023/01/11 09:29:45;;;;;;;;;;;9.60;99.90;;;;;;5133013;27;19994;-45
2023/01/11 09:32:10;;;;;;;;;;;9.50;99.90;;;;;;5134030;27;19908;-44
2023/01/11 09:34:36;;;;;;;;;;;9.60;99.90;;;;;;5114102;27;19991;-43
2023/01/11 09:37:05;;;;;;;;;;;9.50;99.90;;;;;;5133073;27;19908;-44
2023/01/11 09:39:32;;;;;;;;;;;9.50;99.90;;;;;;5132955;27;20006;-48
2023/01/11 09:42:04;;;;;;;;;;;9.50;99.90;;;;;;5135830;27;19999;-47
2023/01/11 09:44:30;;;;;;;;;;;9.60;99.90;;;;;;5132794;27;20009;-47
2023/01/11 09:47:02;;;;;;;;;;;9.60;99.90;;;;;;5140544;27;20384;-45
2023/01/11 09:49:29;;;;;;;;;;;9.60;99.90;;;;;;5131595;27;19957;-43
2023/01/11 09:52:04;;;;;;;;;;;9.50;99.90;;;;;;5137533;27;19972;-45
2023/01/11 09:54:30;;;;;;;;;;;9.50;99.90;;;;;;5135168;27;19998;-44
2023/01/11 09:57:05;;;;;;;;;;;9.50;99.90;;;;;;5139285;27;19911;-44
2023/01/11 09:59:39;;;;;;;;;;;9.50;99.90;;;;;;5142350;27;19919;-47
2023/01/11 10:02:16;;;;;;;;;;;9.50;99.90;;;;;;5135985;27;19920;-44
2023/01/11 10:05:00;;;;;;;;;;;9.50;99.90;;;;;;5131420;27;20056;-45
2023/01/11 10:07:48;;;;;;;;;;;9.50;99.90;;;;;;5120928;27;19917;-45
2023/01/11 10:10:20;;;;;;;;;;;9.50;99.90;;;;;;5116008;27;19911;-47
2023/01/11 10:12:55;;;;;;;;;;;9.50;99.90;;;;;;5137677;27;19914;-47
2023/01/11 10:15:39;;;;;;;;;;;9.60;99.90;;;;;;5143056;27;19920;-45
2023/01/11 10:18:12;;;;;;;;;;;9.70;99.90;;;;;;5142905;27;19954;-44
2023/01/11 10:20:45;;;;;;;;;;;9.80;99.90;;;;;;5142686;27;19923;-45
2023/01/11 10:23:20;;;;;;;;;;;9.90;99.90;;;;;;5137332;27;20353;-43
2023/01/11 10:25:50;;;;;;;;;;;9.90;99.90;;;;;;5140069;27;19916;-45
2023/01/11 10:28:30;;;;;;;;;;;10.00;99.90;;;;;;5135138;27;20361;-46
2023/01/11 10:36:38;;;;;;;;;;;10.20;99.90;;;;;;5113738;28;19919;-48
2023/01/11 10:42:06;;;;;;;;;;;10.20;99.90;;;;;;5118492;27;19994;-44
2023/01/11 10:44:36;;;;;;;;;;;10.30;99.90;;;;;;5132785;27;20307;-48
2023/01/11 10:47:02;;;;;;;;;;;10.40;99.90;;;;;;5133498;27;19929;-44
2023/01/11 10:49:46;;;;;;;;;;;10.40;99.90;;;;;;5133611;28;19907;-44
2023/01/11 10:52:34;;;;;;;;;;;10.50;99.90;;;;;;5112301;28;19912;-44
2023/01/11 10:55:19;;;;;;;;;;;10.60;99.90;;;;;;5098319;28;20011;-45
2023/01/11 10:57:51;;;;;;;;;;;10.60;99.90;;;;;;5091615;28;19908;-45
2023/01/11 11:00:23;;;;;;;;;;;10.70;99.90;;;;;;5092534;28;20007;-46
2023/01/11 11:03:02;;;;;;;;;;;10.60;99.90;;;;;;5092583;28;20003;-43
2023/01/11 11:05:39;;;;;;;;;;;10.60;99.90;;;;;;5091722;28;19959;-46
2023/01/11 11:08:17;;;;;;;;;;;10.50;99.90;;;;;;5074219;28;20324;-45
2023/01/11 11:10:51;;;;;;;;;;;10.40;99.90;;;;;;5104601;28;19915;-45
2023/01/11 11:13:34;;;;;;;;;;;10.30;99.90;;;;;;5111923;28;19915;-44
2023/01/11 11:16:09;;;;;;;;;;;10.30;99.90;;;;;;5112740;28;19915;-45
2023/01/11 11:18:35;;;;;;;;;;;10.40;99.90;;;;;;5112812;28;19912;-43
2023/01/11 11:21:03;;;;;;;;;;;10.40;99.90;;;;;;5112116;28;20259;-46
2023/01/11 11:23:29;;;;;;;;;;;10.40;99.90;;;;;;5112602;28;19914;-44
2023/01/11 11:25:56;;;;;;;;;;;10.50;99.90;;;;;;5099603;28;19916;-46
2023/01/11 11:28:21;;;;;;;;;;;10.50;99.90;;;;;;5092515;28;19961;-49
2023/01/11 11:30:50;;;;;;;;;;;10.60;99.90;;;;;;5096162;28;19916;-44
2023/01/11 11:33:21;;;;;;;;;;;10.60;99.90;;;;;;5098869;28;20342;-44
2023/01/11 11:35:57;;;;;;;;;;;10.60;99.90;;;;;;5116576;28;20381;-43
2023/01/11 11:38:23;;;;;;;;;;;10.70;99.90;;;;;;5116196;28;19995;-45
2023/01/11 11:41:04;;;;;;;;;;;10.90;99.90;;;;;;5115747;28;19953;-44
2023/01/11 11:43:33;;;;;;;;;;;10.90;99.90;;;;;;5116346;28;19914;-45
2023/01/11 11:46:00;;;;;;;;;;;10.90;99.90;;;;;;5115804;28;19953;-45
2023/01/11 11:48:27;;;;;;;;;;;11.00;99.90;;;;;;5111231;28;19921;-43
2023/01/11 11:50:54;;;;;;;;;;;10.90;99.90;;;;;;5108452;28;19912;-44
2023/01/11 11:53:41;;;;;;;;;;;10.90;99.90;;;;;;5116773;27;20443;-43
2023/01/11 11:56:13;;;;;;;;;;;10.80;99.90;;;;;;5127918;27;19919;-45
2023/01/11 11:58:39;;;;;;;;;;;10.70;99.90;;;;;;5132826;27;21173;-43
2023/01/11 12:01:07;;;;;;;;;;;10.70;99.90;;;;;;5136668;27;19915;-45
2023/01/11 12:03:32;;;;;;;;;;;10.60;99.90;;;;;;5133629;27;19920;-45
2023/01/11 12:06:02;;;;;;;;;;;10.60;99.90;;;;;;5144063;27;20370;-45
2023/01/11 12:08:29;;;;;;;;;;;10.60;99.90;;;;;;5137882;27;19907;-44
2023/01/11 12:10:57;;;;;;;;;;;10.70;99.90;;;;;;5141598;27;19912;-44
2023/01/11 12:13:26;;;;;;;;;;;10.80;99.90;;;;;;5128926;27;19919;-44
2023/01/11 12:15:59;;;;;;;;;;;10.90;99.90;;;;;;5135705;27;19907;-45
2023/01/11 12:18:40;;;;;;;;;;;11.00;99.90;;;;;;5115847;28;20006;-43
2023/01/11 12:21:19;;;;;;;;;;;11.00;99.90;;;;;;5115620;28;20014;-45
2023/01/11 12:23:44;;;;;;;;;;;11.20;99.90;;;;;;5117686;27;19916;-45
2023/01/11 12:26:13;;;;;;;;;;;11.10;99.90;;;;;;5140504;27;19981;-43
2023/01/11 12:28:53;;;;;;;;;;;11.10;99.90;;;;;;5136206;27;19911;-44
2023/01/11 12:31:24;;;;;;;;;;;11.10;99.90;;;;;;5135196;27;19907;-44
2023/01/11 12:34:07;;;;;;;;;;;11.00;99.90;;;;;;5126233;27;20077;-44
2023/01/11 12:36:35;;;;;;;;;;;11.10;99.90;;;;;;5125628;27;19911;-43
2023/01/11 12:39:19;;;;;;;;;;;11.00;99.90;;;;;;5122654;27;19939;-45
2023/01/11 12:41:46;;;;;;;;;;;11.10;99.90;;;;;;5127555;27;19916;-44
2023/01/11 12:44:12;;;;;;;;;;;11.10;99.90;;;;;;5122557;27;19912;-43
2023/01/11 12:46:59;;;;;;;;;;;11.10;99.90;;;;;;5129329;27;19911;-44
2023/01/11 12:49:27;;;;;;;;;;;11.00;99.90;;;;;;5131534;27;19976;-43
2023/01/11 12:52:03;;;;;;;;;;;10.90;99.90;;;;;;5139781;27;20349;-45
2023/01/11 12:54:40;;;;;;;;;;;10.80;99.90;;;;;;5142440;27;19919;-46
2023/01/11 12:57:08;;;;;;;;;;;10.80;99.90;;;;;;5134720;27;19972;-45
2023/01/11 12:59:42;;;;;;;;;;;10.80;99.90;;;;;;5134347;27;20366;-44
2023/01/11 13:02:10;;;;;;;;;;;10.80;99.90;;;;;;5135630;27;20014;-46
2023/01/11 13:04:35;;;;;;;;;;;10.70;99.90;;;;;;5135528;27;20382;-44
2023/01/11 13:07:09;;;;;;;;;;;10.70;99.90;;;;;;5154407;27;19907;-44
2023/01/11 13:09:54;;;;;;;;;;;10.90;99.90;;;;;;5122169;27;19915;-44
2023/01/11 13:12:28;;;;;;;;;;;10.90;99.90;;;;;;5113577;28;19915;-44
2023/01/11 13:15:12;;;;;;;;;;;10.80;99.90;;;;;;5130803;27;19923;-45
2023/01/11 13:17:43;;;;;;;;;;;10.80;99.90;;;;;;5135326;27;19908;-45
2023/01/11 13:20:19;;;;;;;;;;;10.90;99.90;;;;;;5134469;27;19913;-43
2023/01/11 13:23:05;;;;;;;;;;;10.90;99.90;;;;;;5135289;27;19957;-45
2023/01/11 13:25:32;;;;;;;;;;;11.00;99.90;;;;;;5123581;27;19908;-46
2023/01/11 13:27:59;;;;;;;;;;;11.10;99.90;;;;;;5145223;27;20001;-48
2023/01/11 13:30:25;;;;;;;;;;;11.20;99.90;;;;;;5155661;27;19914;-45
2023/01/11 13:33:01;;;;;;;;;;;11.10;99.90;;;;;;5154986;27;19907;-46
2023/01/11 13:35:39;;;;;;;;;;;11.00;99.90;;;;;;5155525;27;19914;-45
2023/01/11 13:38:21;;;;;;;;;;;10.90;99.90;;;;;;5155560;27;19907;-44
2023/01/11 13:40:48;;;;;;;;;;;10.80;99.90;;;;;;5155049;27;20003;-44
2023/01/11 13:43:38;;;;;;;;;;;10.70;99.90;;;;;;5148767;27;19964;-45
2023/01/11 13:46:10;;;;;;;;;;;10.70;99.90;;;;;;5134807;27;19907;-44
2023/01/11 13:48:44;;;;;;;;;;;10.70;99.90;;;;;;5133888;27;19990;-46
2023/01/11 13:51:15;;;;;;;;;;;10.70;99.90;;;;;;5134794;27;19915;-44
2023/01/11 13:53:58;;;;;;;;;;;10.80;99.90;;;;;;5133775;27;20366;-45
2023/01/11 13:56:26;;;;;;;;;;;10.90;99.90;;;;;;5134581;27;19994;-43
2023/01/11 13:58:57;;;;;;;;;;;11.00;99.90;;;;;;5134435;27;19907;-49
2023/01/11 14:01:36;;;;;;;;;;;11.00;99.90;;;;;;5140995;27;19958;-44
2023/01/11 14:04:07;;;;;;;;;;;11.00;99.90;;;;;;5155124;27;19911;-44
2023/01/11 14:06:32;;;;;;;;;;;11.00;99.90;;;;;;5154973;27;19907;-45
2023/01/11 14:09:13;;;;;;;;;;;11.00;99.90;;;;;;5154270;27;20329;-47
2023/01/11 14:11:46;;;;;;;;;;;11.10;99.90;;;;;;5155123;27;19908;-44
2023/01/11 14:14:16;;;;;;;;;;;11.20;99.90;;;;;;5154749;27;19922;-46
2023/01/11 14:16:42;;;;;;;;;;;11.40;99.90;;;;;;5140117;27;19919;-44
2023/01/11 14:19:07;;;;;;;;;;;11.40;99.90;;;;;;5119860;27;19912;-43
2023/01/11 14:21:39;;;;;;;;;;;11.40;99.90;;;;;;5118561;27;19918;-45
2023/01/11 14:24:05;;;;;;;;;;;11.30;99.90;;;;;;5123529;27;19953;-45
2023/01/11 14:26:36;;;;;;;;;;;11.00;99.90;;;;;;5132951;27;20314;-44
2023/01/11 14:29:02;;;;;;;;;;;10.90;99.90;;;;;;5131709;27;19914;-47
2023/01/11 14:31:38;;;;;;;;;;;10.80;99.90;;;;;;5133865;27;19994;-44
2023/01/11 14:34:22;;;;;;;;;;;10.60;99.90;;;;;;5133833;27;19922;-44
2023/01/11 14:37:06;;;;;;;;;;;10.50;99.90;;;;;;5133162;27;19908;-45
2023/01/11 14:39:55;;;;;;;;;;;10.50;99.90;;;;;;5134735;27;19919;-44
2023/01/11 14:42:20;;;;;;;;;;;10.40;99.90;;;;;;5103964;27;19911;-45
2023/01/11 14:44:46;;;;;;;;;;;10.50;99.90;;;;;;5132947;27;20054;-45
2023/01/11 14:47:26;;;;;;;;;;;10.40;99.90;;;;;;5133753;27;19914;-46
2023/01/11 14:50:10;;;;;;;;;;;10.40;99.90;;;;;;5133739;27;20340;-46
2023/01/11 14:52:37;;;;;;;;;;;10.30;99.90;;;;;;5133606;28;19960;-45
2023/01/11 14:55:05;;;;;;;;;;;10.20;99.90;;;;;;5133267;27;19966;-46
2023/01/11 14:57:41;;;;;;;;;;;10.10;99.90;;;;;;5133810;27;19918;-47
2023/01/11 15:00:13;;;;;;;;;;;10.00;99.90;;;;;;5133546;27;19922;-46
2023/01/11 15:02:38;;;;;;;;;;;10.00;99.90;;;;;;5135376;27;19914;-46
2023/01/11 15:05:05;;;;;;;;;;;9.90;99.90;;;;;;5136944;27;19990;-44
2023/01/11 15:07:30;;;;;;;;;;;9.80;99.90;;;;;;5137966;27;19986;-46